sensor_id;sensor_type;location;lat;lon;timestamp;P1;durP1;ratioP1;P2;durP2;ratioP2
17214;SDS011;8723;51.502;6.918;2023-05-14T00:01:19;73.60;;;70.17;;
17214;SDS011;8723;51.502;6.918;2023-05-14T00:03:46;82.97;;;79.38;;
17214;SDS011;8723;51.502;6.918;2023-05-14T00:06:13;61.95;;;59.08;;
17214;SDS011;8723;51.502;6.918;2023-05-14T00:08:40;73.38;;;69.78;;
17214;SDS011;8723;51.502;6.918;2023-05-14T00:11:07;66.88;;;63.88;;
17214;SDS011;8723;51.502;6.918;2023-05-14T00:13:34;58.53;;;55.83;;
17214;SDS011;8723;51.502;6.918;2023-05-14T00:16:00;62.83;;;59.93;;
17214;SDS011;8723;51.502;6.918;2023-05-14T00:18:29;59.58;;;56.80;;
17214;SDS011;8723;51.502;6.918;2023-05-14T00:20:55;53.17;;;50.58;;
17214;SDS011;8723;51.502;6.918;2023-05-14T00:23:22;54.80;;;52.20;;
17214;SDS011;8723;51.502;6.918;2023-05-14T00:25:49;54.08;;;51.55;;
17214;SDS011;8723;51.502;6.918;2023-05-14T00:28:16;45.28;;;43.00;;
17214;SDS011;8723;51.502;6.918;2023-05-14T00:30:43;48.90;;;46.53;;
17214;SDS011;8723;51.502;6.918;2023-05-14T00:33:10;55.78;;;53.17;;
17214;SDS011;8723;51.502;6.918;2023-05-14T00:35:38;97.10;;;92.85;;
17214;SDS011;8723;51.502;6.918;2023-05-14T00:38:05;53.37;;;50.70;;
17214;SDS011;8723;51.502;6.918;2023-05-14T00:40:31;73.20;;;69.90;;
17214;SDS011;8723;51.502;6.918;2023-05-14T00:42:58;78.00;;;74.30;;
17214;SDS011;8723;51.502;6.918;2023-05-14T00:45:25;43.13;;;40.85;;
17214;SDS011;8723;51.502;6.918;2023-05-14T00:47:53;44.85;;;42.55;;
17214;SDS011;8723;51.502;6.918;2023-05-14T00:50:20;57.85;;;55.15;;
17214;SDS011;8723;51.502;6.918;2023-05-14T00:52:49;56.65;;;53.88;;
17214;SDS011;8723;51.502;6.918;2023-05-14T00:55:16;99.70;;;95.43;;
17214;SDS011;8723;51.502;6.918;2023-05-14T00:57:44;42.97;;;40.83;;
17214;SDS011;8723;51.502;6.918;2023-05-14T01:00:12;40.63;;;38.27;;
17214;SDS011;8723;51.502;6.918;2023-05-14T01:02:39;41.38;;;39.17;;
17214;SDS011;8723;51.502;6.918;2023-05-14T01:05:06;75.03;;;71.53;;
17214;SDS011;8723;51.502;6.918;2023-05-14T01:07:36;94.28;;;90.18;;
17214;SDS011;8723;51.502;6.918;2023-05-14T01:10:12;54.58;;;51.92;;
17214;SDS011;8723;51.502;6.918;2023-05-14T01:12:45;36.72;;;34.83;;
17214;SDS011;8723;51.502;6.918;2023-05-14T01:15:18;101.50;;;97.20;;
17214;SDS011;8723;51.502;6.918;2023-05-14T01:17:47;95.47;;;91.37;;
17214;SDS011;8723;51.502;6.918;2023-05-14T01:20:18;107.50;;;102.93;;
17214;SDS011;8723;51.502;6.918;2023-05-14T01:22:47;115.20;;;110.28;;
17214;SDS011;8723;51.502;6.918;2023-05-14T01:25:13;106.87;;;102.17;;
17214;SDS011;8723;51.502;6.918;2023-05-14T01:27:41;117.50;;;112.28;;
17214;SDS011;8723;51.502;6.918;2023-05-14T01:30:14;106.18;;;101.63;;
17214;SDS011;8723;51.502;6.918;2023-05-14T01:32:46;80.72;;;77.13;;
17214;SDS011;8723;51.502;6.918;2023-05-14T01:35:14;70.07;;;66.78;;
17214;SDS011;8723;51.502;6.918;2023-05-14T01:37:41;82.67;;;78.90;;
17214;SDS011;8723;51.502;6.918;2023-05-14T01:40:11;60.17;;;57.28;;
17214;SDS011;8723;51.502;6.918;2023-05-14T01:42:40;134.75;;;129.25;;
17214;SDS011;8723;51.502;6.918;2023-05-14T01:45:09;177.50;;;169.95;;
17214;SDS011;8723;51.502;6.918;2023-05-14T01:47:37;132.65;;;127.07;;
17214;SDS011;8723;51.502;6.918;2023-05-14T01:50:07;128.25;;;122.95;;
17214;SDS011;8723;51.502;6.918;2023-05-14T01:52:38;73.18;;;69.60;;
17214;SDS011;8723;51.502;6.918;2023-05-14T01:55:08;113.72;;;108.88;;
17214;SDS011;8723;51.502;6.918;2023-05-14T01:57:40;116.47;;;111.47;;
17214;SDS011;8723;51.502;6.918;2023-05-14T02:00:09;168.93;;;161.93;;
17214;SDS011;8723;51.502;6.918;2023-05-14T02:02:39;170.55;;;163.43;;
17214;SDS011;8723;51.502;6.918;2023-05-14T02:05:09;170.37;;;163.00;;
17214;SDS011;8723;51.502;6.918;2023-05-14T02:07:37;116.05;;;111.15;;
17214;SDS011;8723;51.502;6.918;2023-05-14T02:10:05;129.67;;;123.93;;
17214;SDS011;8723;51.502;6.918;2023-05-14T02:12:35;153.00;;;146.57;;
17214;SDS011;8723;51.502;6.918;2023-05-14T02:15:02;153.27;;;146.65;;
17214;SDS011;8723;51.502;6.918;2023-05-14T02:17:31;302.27;;;289.65;;
17214;SDS011;8723;51.502;6.918;2023-05-14T02:20:00;406.80;;;388.83;;
17214;SDS011;8723;51.502;6.918;2023-05-14T02:22:30;405.98;;;387.98;;
17214;SDS011;8723;51.502;6.918;2023-05-14T02:24:57;393.73;;;376.55;;
17214;SDS011;8723;51.502;6.918;2023-05-14T02:27:26;334.90;;;320.65;;
17214;SDS011;8723;51.502;6.918;2023-05-14T02:29:54;388.23;;;370.88;;
17214;SDS011;8723;51.502;6.918;2023-05-14T02:32:25;338.02;;;323.70;;
17214;SDS011;8723;51.502;6.918;2023-05-14T02:34:55;426.65;;;407.70;;
17214;SDS011;8723;51.502;6.918;2023-05-14T02:37:24;435.70;;;416.20;;
17214;SDS011;8723;51.502;6.918;2023-05-14T02:39:52;371.97;;;356.00;;
17214;SDS011;8723;51.502;6.918;2023-05-14T02:42:20;279.02;;;267.63;;
17214;SDS011;8723;51.502;6.918;2023-05-14T02:44:46;234.98;;;225.43;;
17214;SDS011;8723;51.502;6.918;2023-05-14T02:47:15;214.45;;;205.55;;
17214;SDS011;8723;51.502;6.918;2023-05-14T02:49:41;182.07;;;174.40;;
17214;SDS011;8723;51.502;6.918;2023-05-14T02:52:08;134.52;;;128.65;;
17214;SDS011;8723;51.502;6.918;2023-05-14T02:54:35;87.35;;;83.32;;
17214;SDS011;8723;51.502;6.918;2023-05-14T02:57:02;149.75;;;143.45;;
17214;SDS011;8723;51.502;6.918;2023-05-14T02:59:29;282.23;;;270.85;;
17214;SDS011;8723;51.502;6.918;2023-05-14T03:01:56;188.05;;;180.13;;
17214;SDS011;8723;51.502;6.918;2023-05-14T03:04:27;177.50;;;169.83;;
17214;SDS011;8723;51.502;6.918;2023-05-14T03:06:56;186.32;;;178.63;;
17214;SDS011;8723;51.502;6.918;2023-05-14T03:09:25;94.15;;;89.88;;
17214;SDS011;8723;51.502;6.918;2023-05-14T03:11:55;158.67;;;152.07;;
17214;SDS011;8723;51.502;6.918;2023-05-14T03:14:24;218.40;;;209.65;;
17214;SDS011;8723;51.502;6.918;2023-05-14T03:16:51;263.42;;;252.88;;
17214;SDS011;8723;51.502;6.918;2023-05-14T03:19:18;108.47;;;103.72;;
17214;SDS011;8723;51.502;6.918;2023-05-14T03:21:46;328.65;;;315.27;;
17214;SDS011;8723;51.502;6.918;2023-05-14T03:24:14;146.18;;;139.85;;
17214;SDS011;8723;51.502;6.918;2023-05-14T03:26:40;277.15;;;266.00;;
17214;SDS011;8723;51.502;6.918;2023-05-14T03:29:07;220.43;;;211.43;;
17214;SDS011;8723;51.502;6.918;2023-05-14T03:31:34;135.23;;;129.43;;
17214;SDS011;8723;51.502;6.918;2023-05-14T03:34:01;119.50;;;114.30;;
17214;SDS011;8723;51.502;6.918;2023-05-14T03:36:28;152.57;;;145.95;;
17214;SDS011;8723;51.502;6.918;2023-05-14T03:38:57;253.50;;;243.35;;
17214;SDS011;8723;51.502;6.918;2023-05-14T03:41:24;409.63;;;392.27;;
17214;SDS011;8723;51.502;6.918;2023-05-14T03:43:50;185.65;;;178.05;;
17214;SDS011;8723;51.502;6.918;2023-05-14T03:46:17;114.55;;;109.65;;
17214;SDS011;8723;51.502;6.918;2023-05-14T03:48:44;218.25;;;209.45;;
17214;SDS011;8723;51.502;6.918;2023-05-14T03:51:11;177.90;;;170.60;;
17214;SDS011;8723;51.502;6.918;2023-05-14T03:53:38;193.02;;;185.02;;
17214;SDS011;8723;51.502;6.918;2023-05-14T03:56:06;165.40;;;158.35;;
17214;SDS011;8723;51.502;6.918;2023-05-14T03:58:33;139.53;;;133.67;;
17214;SDS011;8723;51.502;6.918;2023-05-14T04:01:00;273.63;;;262.70;;
17214;SDS011;8723;51.502;6.918;2023-05-14T04:03:27;159.27;;;152.68;;
17214;SDS011;8723;51.502;6.918;2023-05-14T04:05:53;108.28;;;103.53;;
17214;SDS011;8723;51.502;6.918;2023-05-14T04:08:20;89.95;;;85.95;;
17214;SDS011;8723;51.502;6.918;2023-05-14T04:10:47;60.15;;;57.30;;
17214;SDS011;8723;51.502;6.918;2023-05-14T04:13:15;84.65;;;80.53;;
17214;SDS011;8723;51.502;6.918;2023-05-14T04:15:42;138.93;;;133.13;;
17214;SDS011;8723;51.502;6.918;2023-05-14T04:18:09;228.90;;;219.77;;
17214;SDS011;8723;51.502;6.918;2023-05-14T04:20:36;191.85;;;184.05;;
17214;SDS011;8723;51.502;6.918;2023-05-14T04:23:03;365.90;;;350.45;;
17214;SDS011;8723;51.502;6.918;2023-05-14T04:25:29;180.45;;;172.95;;
17214;SDS011;8723;51.502;6.918;2023-05-14T04:27:56;104.30;;;99.85;;
17214;SDS011;8723;51.502;6.918;2023-05-14T04:30:25;181.00;;;173.48;;
17214;SDS011;8723;51.502;6.918;2023-05-14T04:32:51;170.02;;;162.88;;
17214;SDS011;8723;51.502;6.918;2023-05-14T04:35:19;137.45;;;131.65;;
17214;SDS011;8723;51.502;6.918;2023-05-14T04:37:46;278.65;;;267.20;;
17214;SDS011;8723;51.502;6.918;2023-05-14T04:40:13;247.98;;;237.90;;
17214;SDS011;8723;51.502;6.918;2023-05-14T04:42:40;192.40;;;184.32;;
17214;SDS011;8723;51.502;6.918;2023-05-14T04:45:08;239.60;;;229.85;;
17214;SDS011;8723;51.502;6.918;2023-05-14T04:47:36;236.75;;;227.07;;
17214;SDS011;8723;51.502;6.918;2023-05-14T04:50:04;182.07;;;174.57;;
17214;SDS011;8723;51.502;6.918;2023-05-14T04:52:33;299.15;;;286.83;;
17214;SDS011;8723;51.502;6.918;2023-05-14T04:55:00;210.52;;;201.82;;
17214;SDS011;8723;51.502;6.918;2023-05-14T04:57:26;120.05;;;114.88;;
17214;SDS011;8723;51.502;6.918;2023-05-14T04:59:53;221.40;;;212.35;;
17214;SDS011;8723;51.502;6.918;2023-05-14T05:02:20;328.17;;;314.73;;
17214;SDS011;8723;51.502;6.918;2023-05-14T05:04:48;280.63;;;269.27;;
17214;SDS011;8723;51.502;6.918;2023-05-14T05:07:15;428.67;;;409.95;;
17214;SDS011;8723;51.502;6.918;2023-05-14T05:09:42;403.15;;;385.85;;
17214;SDS011;8723;51.502;6.918;2023-05-14T05:12:09;413.55;;;395.48;;
17214;SDS011;8723;51.502;6.918;2023-05-14T05:14:35;274.50;;;263.27;;
17214;SDS011;8723;51.502;6.918;2023-05-14T05:17:02;428.03;;;409.27;;
17214;SDS011;8723;51.502;6.918;2023-05-14T05:19:29;361.67;;;346.27;;
17214;SDS011;8723;51.502;6.918;2023-05-14T05:21:57;453.73;;;433.07;;
17214;SDS011;8723;51.502;6.918;2023-05-14T05:24:24;411.48;;;393.38;;
17214;SDS011;8723;51.502;6.918;2023-05-14T05:26:51;484.00;;;462.13;;
17214;SDS011;8723;51.502;6.918;2023-05-14T05:29:19;480.15;;;458.58;;
17214;SDS011;8723;51.502;6.918;2023-05-14T05:31:46;456.80;;;436.42;;
17214;SDS011;8723;51.502;6.918;2023-05-14T05:34:13;452.58;;;432.25;;
17214;SDS011;8723;51.502;6.918;2023-05-14T05:36:40;523.70;;;498.63;;
17214;SDS011;8723;51.502;6.918;2023-05-14T05:39:08;533.57;;;508.17;;
17214;SDS011;8723;51.502;6.918;2023-05-14T05:41:35;418.25;;;399.98;;
17214;SDS011;8723;51.502;6.918;2023-05-14T05:44:02;348.43;;;333.43;;
17214;SDS011;8723;51.502;6.918;2023-05-14T05:46:29;426.67;;;406.88;;
17214;SDS011;8723;51.502;6.918;2023-05-14T05:48:55;175.48;;;167.75;;
17214;SDS011;8723;51.502;6.918;2023-05-14T05:51:22;197.00;;;188.10;;
17214;SDS011;8723;51.502;6.918;2023-05-14T05:53:49;470.70;;;433.98;;
17214;SDS011;8723;51.502;6.918;2023-05-14T05:56:17;110.53;;;105.32;;
17214;SDS011;8723;51.502;6.918;2023-05-14T05:58:44;130.80;;;124.53;;
17214;SDS011;8723;51.502;6.918;2023-05-14T06:01:10;136.75;;;130.38;;
17214;SDS011;8723;51.502;6.918;2023-05-14T06:03:37;79.32;;;75.32;;
17214;SDS011;8723;51.502;6.918;2023-05-14T06:06:04;78.75;;;74.65;;
17214;SDS011;8723;51.502;6.918;2023-05-14T06:08:31;74.40;;;70.60;;
17214;SDS011;8723;51.502;6.918;2023-05-14T06:10:58;59.30;;;55.95;;
17214;SDS011;8723;51.502;6.918;2023-05-14T06:13:26;50.72;;;47.78;;
17214;SDS011;8723;51.502;6.918;2023-05-14T06:15:53;94.47;;;89.78;;
17214;SDS011;8723;51.502;6.918;2023-05-14T06:18:20;61.97;;;58.47;;
17214;SDS011;8723;51.502;6.918;2023-05-14T06:20:46;72.53;;;68.65;;
17214;SDS011;8723;51.502;6.918;2023-05-14T06:23:13;73.73;;;69.73;;
17214;SDS011;8723;51.502;6.918;2023-05-14T06:25:40;92.03;;;87.63;;
17214;SDS011;8723;51.502;6.918;2023-05-14T06:28:07;93.35;;;88.78;;
17214;SDS011;8723;51.502;6.918;2023-05-14T06:30:35;113.65;;;108.35;;
17214;SDS011;8723;51.502;6.918;2023-05-14T06:33:02;106.88;;;101.57;;
17214;SDS011;8723;51.502;6.918;2023-05-14T06:35:28;137.70;;;131.30;;
17214;SDS011;8723;51.502;6.918;2023-05-14T06:37:55;157.27;;;150.00;;
17214;SDS011;8723;51.502;6.918;2023-05-14T06:40:22;122.18;;;116.43;;
17214;SDS011;8723;51.502;6.918;2023-05-14T06:42:49;107.65;;;102.63;;
17214;SDS011;8723;51.502;6.918;2023-05-14T06:45:15;97.38;;;92.60;;
17214;SDS011;8723;51.502;6.918;2023-05-14T06:47:44;80.28;;;76.18;;
17214;SDS011;8723;51.502;6.918;2023-05-14T06:50:10;118.10;;;112.68;;
17214;SDS011;8723;51.502;6.918;2023-05-14T06:52:37;103.97;;;99.07;;
17214;SDS011;8723;51.502;6.918;2023-05-14T06:55:04;101.28;;;96.43;;
17214;SDS011;8723;51.502;6.918;2023-05-14T06:57:32;199.98;;;191.77;;
17214;SDS011;8723;51.502;6.918;2023-05-14T06:59:59;137.75;;;131.75;;
17214;SDS011;8723;51.502;6.918;2023-05-14T07:02:25;170.70;;;162.90;;
17214;SDS011;8723;51.502;6.918;2023-05-14T07:04:53;223.43;;;214.45;;
17214;SDS011;8723;51.502;6.918;2023-05-14T07:07:20;225.00;;;215.83;;
17214;SDS011;8723;51.502;6.918;2023-05-14T07:09:47;188.73;;;181.02;;
17214;SDS011;8723;51.502;6.918;2023-05-14T07:12:15;152.60;;;146.00;;
17214;SDS011;8723;51.502;6.918;2023-05-14T07:14:41;150.30;;;143.90;;
17214;SDS011;8723;51.502;6.918;2023-05-14T07:17:08;157.35;;;150.73;;
17214;SDS011;8723;51.502;6.918;2023-05-14T07:19:35;147.25;;;140.95;;
17214;SDS011;8723;51.502;6.918;2023-05-14T07:22:03;120.45;;;115.03;;
17214;SDS011;8723;51.502;6.918;2023-05-14T07:24:30;89.28;;;85.35;;
17214;SDS011;8723;51.502;6.918;2023-05-14T07:26:57;116.10;;;111.03;;
17214;SDS011;8723;51.502;6.918;2023-05-14T07:29:25;126.72;;;121.07;;
17214;SDS011;8723;51.502;6.918;2023-05-14T07:31:52;142.40;;;136.02;;
17214;SDS011;8723;51.502;6.918;2023-05-14T07:34:19;93.97;;;89.80;;
17214;SDS011;8723;51.502;6.918;2023-05-14T07:36:45;97.10;;;92.93;;
17214;SDS011;8723;51.502;6.918;2023-05-14T07:39:14;92.28;;;87.95;;
17214;SDS011;8723;51.502;6.918;2023-05-14T07:41:40;99.57;;;95.27;;
17214;SDS011;8723;51.502;6.918;2023-05-14T07:44:07;86.50;;;82.63;;
17214;SDS011;8723;51.502;6.918;2023-05-14T07:46:34;90.70;;;86.40;;
17214;SDS011;8723;51.502;6.918;2023-05-14T07:49:01;107.43;;;102.63;;
17214;SDS011;8723;51.502;6.918;2023-05-14T07:51:28;95.30;;;91.00;;
17214;SDS011;8723;51.502;6.918;2023-05-14T07:53:57;94.57;;;90.03;;
17214;SDS011;8723;51.502;6.918;2023-05-14T07:56:25;81.53;;;77.65;;
17214;SDS011;8723;51.502;6.918;2023-05-14T07:58:52;107.20;;;102.35;;
17214;SDS011;8723;51.502;6.918;2023-05-14T08:01:20;93.50;;;89.03;;
17214;SDS011;8723;51.502;6.918;2023-05-14T08:03:46;93.22;;;89.07;;
17214;SDS011;8723;51.502;6.918;2023-05-14T08:06:13;103.22;;;98.72;;
17214;SDS011;8723;51.502;6.918;2023-05-14T08:08:40;80.30;;;76.80;;
17214;SDS011;8723;51.502;6.918;2023-05-14T08:11:07;83.35;;;79.70;;
17214;SDS011;8723;51.502;6.918;2023-05-14T08:13:35;85.20;;;81.40;;
17214;SDS011;8723;51.502;6.918;2023-05-14T08:16:02;60.63;;;57.75;;
17214;SDS011;8723;51.502;6.918;2023-05-14T08:18:29;76.15;;;72.78;;
17214;SDS011;8723;51.502;6.918;2023-05-14T08:20:55;66.85;;;63.95;;
17214;SDS011;8723;51.502;6.918;2023-05-14T08:23:22;68.53;;;65.53;;
17214;SDS011;8723;51.502;6.918;2023-05-14T08:25:49;244.73;;;234.65;;
17214;SDS011;8723;51.502;6.918;2023-05-14T08:28:15;141.20;;;135.20;;
17214;SDS011;8723;51.502;6.918;2023-05-14T08:30:44;175.15;;;168.02;;
17214;SDS011;8723;51.502;6.918;2023-05-14T08:33:10;154.20;;;148.10;;
17214;SDS011;8723;51.502;6.918;2023-05-14T08:35:37;150.40;;;144.30;;
17214;SDS011;8723;51.502;6.918;2023-05-14T08:38:04;132.70;;;127.57;;
17214;SDS011;8723;51.502;6.918;2023-05-14T08:40:31;130.63;;;125.47;;
17214;SDS011;8723;51.502;6.918;2023-05-14T08:42:58;89.53;;;85.93;;
17214;SDS011;8723;51.502;6.918;2023-05-14T08:45:27;73.95;;;70.75;;
17214;SDS011;8723;51.502;6.918;2023-05-14T08:47:59;66.63;;;63.95;;
17214;SDS011;8723;51.502;6.918;2023-05-14T08:50:29;83.90;;;80.57;;
17214;SDS011;8723;51.502;6.918;2023-05-14T08:52:56;187.27;;;180.00;;
17214;SDS011;8723;51.502;6.918;2023-05-14T08:55:23;230.73;;;221.90;;
17214;SDS011;8723;51.502;6.918;2023-05-14T08:57:53;257.35;;;247.57;;
17214;SDS011;8723;51.502;6.918;2023-05-14T09:00:20;317.52;;;305.27;;
17214;SDS011;8723;51.502;6.918;2023-05-14T09:02:47;210.73;;;202.57;;
17214;SDS011;8723;51.502;6.918;2023-05-14T09:05:15;154.25;;;147.80;;
17214;SDS011;8723;51.502;6.918;2023-05-14T09:07:44;201.45;;;193.18;;
17214;SDS011;8723;51.502;6.918;2023-05-14T09:10:10;203.77;;;195.32;;
17214;SDS011;8723;51.502;6.918;2023-05-14T09:12:39;470.77;;;449.85;;
17214;SDS011;8723;51.502;6.918;2023-05-14T09:15:06;64.22;;;61.63;;
17214;SDS011;8723;51.502;6.918;2023-05-14T09:17:33;168.63;;;162.02;;
17214;SDS011;8723;51.502;6.918;2023-05-14T09:20:00;246.18;;;236.45;;
17214;SDS011;8723;51.502;6.918;2023-05-14T09:22:30;120.63;;;115.78;;
17214;SDS011;8723;51.502;6.918;2023-05-14T09:25:00;208.32;;;200.27;;
17214;SDS011;8723;51.502;6.918;2023-05-14T09:27:29;106.80;;;102.27;;
17214;SDS011;8723;51.502;6.918;2023-05-14T09:30:03;35.75;;;34.05;;
17214;SDS011;8723;51.502;6.918;2023-05-14T09:32:34;20.93;;;20.00;;
17214;SDS011;8723;51.502;6.918;2023-05-14T09:35:08;19.90;;;18.80;;
17214;SDS011;8723;51.502;6.918;2023-05-14T09:37:42;25.33;;;24.02;;
17214;SDS011;8723;51.502;6.918;2023-05-14T09:40:11;15.77;;;14.97;;
17214;SDS011;8723;51.502;6.918;2023-05-14T09:42:38;18.85;;;17.98;;
17214;SDS011;8723;51.502;6.918;2023-05-14T09:45:06;23.20;;;22.20;;
17214;SDS011;8723;51.502;6.918;2023-05-14T09:47:34;23.55;;;22.38;;
17214;SDS011;8723;51.502;6.918;2023-05-14T09:50:00;20.42;;;19.55;;
17214;SDS011;8723;51.502;6.918;2023-05-14T09:52:28;23.95;;;22.95;;
17214;SDS011;8723;51.502;6.918;2023-05-14T09:54:56;18.58;;;17.58;;
17214;SDS011;8723;51.502;6.918;2023-05-14T09:57:23;37.58;;;35.90;;
17214;SDS011;8723;51.502;6.918;2023-05-14T09:59:51;27.13;;;25.83;;
17214;SDS011;8723;51.502;6.918;2023-05-14T10:02:21;24.50;;;23.40;;
17214;SDS011;8723;51.502;6.918;2023-05-14T10:04:49;19.85;;;19.05;;
17214;SDS011;8723;51.502;6.918;2023-05-14T10:07:20;23.45;;;22.45;;
17214;SDS011;8723;51.502;6.918;2023-05-14T10:09:49;19.88;;;18.98;;
17214;SDS011;8723;51.502;6.918;2023-05-14T10:12:34;23.88;;;22.80;;
17214;SDS011;8723;51.502;6.918;2023-05-14T10:15:05;23.33;;;22.23;;
17214;SDS011;8723;51.502;6.918;2023-05-14T10:17:37;20.97;;;19.63;;
17214;SDS011;8723;51.502;6.918;2023-05-14T10:20:08;46.60;;;44.23;;
17214;SDS011;8723;51.502;6.918;2023-05-14T10:22:38;35.70;;;34.20;;
17214;SDS011;8723;51.502;6.918;2023-05-14T10:25:05;44.80;;;42.88;;
17214;SDS011;8723;51.502;6.918;2023-05-14T10:27:34;39.83;;;38.17;;
17214;SDS011;8723;51.502;6.918;2023-05-14T10:30:03;39.47;;;37.83;;
17214;SDS011;8723;51.502;6.918;2023-05-14T10:32:35;33.20;;;31.77;;
17214;SDS011;8723;51.502;6.918;2023-05-14T10:35:14;53.50;;;50.63;;
17214;SDS011;8723;51.502;6.918;2023-05-14T10:37:42;33.40;;;31.80;;
17214;SDS011;8723;51.502;6.918;2023-05-14T10:40:10;23.40;;;22.30;;
17214;SDS011;8723;51.502;6.918;2023-05-14T10:42:39;27.55;;;26.35;;
17214;SDS011;8723;51.502;6.918;2023-05-14T10:45:08;18.73;;;17.70;;
17214;SDS011;8723;51.502;6.918;2023-05-14T10:47:36;22.10;;;21.05;;
17214;SDS011;8723;51.502;6.918;2023-05-14T10:50:04;13.00;;;12.10;;
17214;SDS011;8723;51.502;6.918;2023-05-14T10:52:32;20.73;;;19.35;;
17214;SDS011;8723;51.502;6.918;2023-05-14T10:55:00;29.63;;;28.23;;
17214;SDS011;8723;51.502;6.918;2023-05-14T10:57:31;13.03;;;12.10;;
17214;SDS011;8723;51.502;6.918;2023-05-14T11:00:02;36.20;;;34.58;;
17214;SDS011;8723;51.502;6.918;2023-05-14T11:02:32;28.05;;;26.85;;
17214;SDS011;8723;51.502;6.918;2023-05-14T11:05:01;14.70;;;13.50;;
17214;SDS011;8723;51.502;6.918;2023-05-14T11:07:30;26.92;;;25.52;;
17214;SDS011;8723;51.502;6.918;2023-05-14T11:10:01;16.13;;;15.43;;
17214;SDS011;8723;51.502;6.918;2023-05-14T11:12:30;25.73;;;24.35;;
17214;SDS011;8723;51.502;6.918;2023-05-14T11:14:58;51.47;;;49.17;;
17214;SDS011;8723;51.502;6.918;2023-05-14T11:17:29;23.25;;;22.25;;
17214;SDS011;8723;51.502;6.918;2023-05-14T11:19:56;66.35;;;63.65;;
17214;SDS011;8723;51.502;6.918;2023-05-14T11:22:24;58.33;;;55.90;;
17214;SDS011;8723;51.502;6.918;2023-05-14T11:24:51;48.97;;;47.00;;
17214;SDS011;8723;51.502;6.918;2023-05-14T11:27:18;52.15;;;50.15;;
17214;SDS011;8723;51.502;6.918;2023-05-14T11:29:47;21.67;;;20.55;;
17214;SDS011;8723;51.502;6.918;2023-05-14T11:32:14;8.43;;;7.93;;
17214;SDS011;8723;51.502;6.918;2023-05-14T11:34:43;12.93;;;11.93;;
17214;SDS011;8723;51.502;6.918;2023-05-14T11:37:11;10.55;;;9.25;;
17214;SDS011;8723;51.502;6.918;2023-05-14T11:39:38;8.20;;;7.53;;
17214;SDS011;8723;51.502;6.918;2023-05-14T11:42:12;9.70;;;9.20;;
17214;SDS011;8723;51.502;6.918;2023-05-14T11:44:41;20.45;;;19.55;;
17214;SDS011;8723;51.502;6.918;2023-05-14T11:47:09;17.03;;;16.13;;
17214;SDS011;8723;51.502;6.918;2023-05-14T11:49:36;10.05;;;9.45;;
17214;SDS011;8723;51.502;6.918;2023-05-14T11:52:05;10.57;;;9.77;;
17214;SDS011;8723;51.502;6.918;2023-05-14T11:54:34;32.70;;;31.20;;
17214;SDS011;8723;51.502;6.918;2023-05-14T11:57:02;8.70;;;8.23;;
17214;SDS011;8723;51.502;6.918;2023-05-14T11:59:32;6.13;;;5.63;;
17214;SDS011;8723;51.502;6.918;2023-05-14T12:02:00;7.95;;;7.35;;
17214;SDS011;8723;51.502;6.918;2023-05-14T12:04:27;5.22;;;4.82;;
17214;SDS011;8723;51.502;6.918;2023-05-14T12:06:56;6.45;;;6.13;;
17214;SDS011;8723;51.502;6.918;2023-05-14T12:09:25;18.05;;;17.30;;
17214;SDS011;8723;51.502;6.918;2023-05-14T12:11:52;15.63;;;14.80;;
17214;SDS011;8723;51.502;6.918;2023-05-14T12:14:19;14.00;;;13.35;;
17214;SDS011;8723;51.502;6.918;2023-05-14T12:16:47;7.18;;;6.78;;
17214;SDS011;8723;51.502;6.918;2023-05-14T12:19:16;8.48;;;8.02;;
17214;SDS011;8723;51.502;6.918;2023-05-14T12:21:44;10.65;;;10.15;;
17214;SDS011;8723;51.502;6.918;2023-05-14T12:24:16;22.75;;;21.75;;
17214;SDS011;8723;51.502;6.918;2023-05-14T12:26:45;26.55;;;25.38;;
17214;SDS011;8723;51.502;6.918;2023-05-14T12:29:13;18.53;;;17.67;;
17214;SDS011;8723;51.502;6.918;2023-05-14T12:31:43;28.45;;;26.95;;
17214;SDS011;8723;51.502;6.918;2023-05-14T12:34:11;10.02;;;9.48;;
17214;SDS011;8723;51.502;6.918;2023-05-14T12:36:39;31.70;;;30.10;;
17214;SDS011;8723;51.502;6.918;2023-05-14T12:39:06;35.85;;;34.35;;
17214;SDS011;8723;51.502;6.918;2023-05-14T12:41:33;23.75;;;22.65;;
17214;SDS011;8723;51.502;6.918;2023-05-14T12:44:02;8.98;;;8.38;;
17214;SDS011;8723;51.502;6.918;2023-05-14T12:46:30;7.63;;;7.13;;
17214;SDS011;8723;51.502;6.918;2023-05-14T12:48:58;13.35;;;12.70;;
17214;SDS011;8723;51.502;6.918;2023-05-14T12:51:24;15.80;;;15.00;;
17214;SDS011;8723;51.502;6.918;2023-05-14T12:53:51;9.10;;;8.50;;
17214;SDS011;8723;51.502;6.918;2023-05-14T12:56:19;9.40;;;8.93;;
17214;SDS011;8723;51.502;6.918;2023-05-14T12:58:51;21.65;;;20.42;;
17214;SDS011;8723;51.502;6.918;2023-05-14T13:01:22;11.45;;;10.85;;
17214;SDS011;8723;51.502;6.918;2023-05-14T13:03:48;8.20;;;7.70;;
17214;SDS011;8723;51.502;6.918;2023-05-14T13:06:15;7.50;;;7.00;;
17214;SDS011;8723;51.502;6.918;2023-05-14T13:08:42;5.55;;;5.20;;
17214;SDS011;8723;51.502;6.918;2023-05-14T13:11:09;6.20;;;5.80;;
17214;SDS011;8723;51.502;6.918;2023-05-14T13:13:36;8.23;;;7.82;;
17214;SDS011;8723;51.502;6.918;2023-05-14T13:16:03;9.88;;;9.27;;
17214;SDS011;8723;51.502;6.918;2023-05-14T13:18:31;12.05;;;11.15;;
17214;SDS011;8723;51.502;6.918;2023-05-14T13:20:58;10.55;;;9.95;;
17214;SDS011;8723;51.502;6.918;2023-05-14T13:23:28;11.30;;;10.23;;
17214;SDS011;8723;51.502;6.918;2023-05-14T13:25:54;4.70;;;4.40;;
17214;SDS011;8723;51.502;6.918;2023-05-14T13:28:21;6.55;;;6.13;;
17214;SDS011;8723;51.502;6.918;2023-05-14T13:31:02;6.47;;;6.00;;
17214;SDS011;8723;51.502;6.918;2023-05-14T13:33:32;7.00;;;6.60;;
17214;SDS011;8723;51.502;6.918;2023-05-14T13:36:00;10.98;;;10.23;;
17214;SDS011;8723;51.502;6.918;2023-05-14T13:38:27;10.37;;;9.93;;
17214;SDS011;8723;51.502;6.918;2023-05-14T13:40:54;9.65;;;9.20;;
17214;SDS011;8723;51.502;6.918;2023-05-14T13:43:25;10.30;;;9.80;;
17214;SDS011;8723;51.502;6.918;2023-05-14T13:45:52;14.25;;;13.45;;
17214;SDS011;8723;51.502;6.918;2023-05-14T13:48:19;14.65;;;13.95;;
17214;SDS011;8723;51.502;6.918;2023-05-14T13:50:47;14.85;;;13.90;;
17214;SDS011;8723;51.502;6.918;2023-05-14T13:53:14;17.73;;;16.80;;
17214;SDS011;8723;51.502;6.918;2023-05-14T13:55:41;12.50;;;12.00;;
17214;SDS011;8723;51.502;6.918;2023-05-14T13:58:08;16.38;;;15.48;;
17214;SDS011;8723;51.502;6.918;2023-05-14T14:00:35;8.63;;;8.10;;
17214;SDS011;8723;51.502;6.918;2023-05-14T14:03:02;13.13;;;12.53;;
17214;SDS011;8723;51.502;6.918;2023-05-14T14:05:28;17.77;;;16.73;;
17214;SDS011;8723;51.502;6.918;2023-05-14T14:07:57;20.67;;;19.40;;
17214;SDS011;8723;51.502;6.918;2023-05-14T14:10:23;9.80;;;9.30;;
17214;SDS011;8723;51.502;6.918;2023-05-14T14:12:50;11.52;;;10.90;;
17214;SDS011;8723;51.502;6.918;2023-05-14T14:15:17;18.65;;;17.65;;
17214;SDS011;8723;51.502;6.918;2023-05-14T14:17:44;8.88;;;8.38;;
17214;SDS011;8723;51.502;6.918;2023-05-14T14:20:11;9.47;;;8.97;;
17214;SDS011;8723;51.502;6.918;2023-05-14T14:22:38;8.43;;;7.93;;
17214;SDS011;8723;51.502;6.918;2023-05-14T14:25:07;8.05;;;7.50;;
17214;SDS011;8723;51.502;6.918;2023-05-14T14:27:35;15.15;;;14.35;;
17214;SDS011;8723;51.502;6.918;2023-05-14T14:30:03;12.85;;;12.23;;